Sturgis, Canada
Current Conditions -  °F | °C
As of 2:00 PM on Saturday 25 Oct 2014 (Local Time) from CYQV Reporting Station
Clear Clear  
Wind Chill: 55°   Ceiling: Unl
Heat Index: 55°   Visibility: 9mi
Dew Point: 25°   Wind: 18mph
Humidity: 31%   Direction: 270°W
Pressure: 30"   Gusts: NA
Location:  51.85°N, 102.53°W
Report Text: CYQV 252000Z AUTO 27016KT 9SM CLR 13/M04 A3000 RMK SLP176
Loading
Personal Weather Stations






























Interactive Weather Map
Tropical Storm Tracking
New forecast layout! Learn more

10-Day Weather Forecast

Advertisements
Track Severe Weather on mobile